createdAt,value
2023-04-15T00:01:00.031Z,2.72
2023-04-15T00:03:30.950Z,2.70
2023-04-15T00:06:00.070Z,2.72
2023-04-15T00:08:29.143Z,2.33
2023-04-15T00:10:59.578Z,2.50
2023-04-15T00:13:31.029Z,2.47
2023-04-15T00:16:00.038Z,2.95
2023-04-15T00:18:29.914Z,2.33
2023-04-15T00:21:02.448Z,2.67
2023-04-15T00:23:30.849Z,3.20
2023-04-15T00:25:58.976Z,3.60
2023-04-15T00:28:28.420Z,3.40
2023-04-15T00:30:56.474Z,3.60
2023-04-15T00:33:24.491Z,3.15
2023-04-15T00:35:52.223Z,2.90
2023-04-15T00:38:20.077Z,3.03
2023-04-15T00:40:48.222Z,2.55
2023-04-15T00:43:16.444Z,2.72
2023-04-15T00:45:47.159Z,2.65
2023-04-15T00:48:16.357Z,2.40
2023-04-15T00:50:44.073Z,2.13
2023-04-15T00:53:12.372Z,2.40
2023-04-15T00:55:40.541Z,2.40
2023-04-15T00:58:08.378Z,2.45
2023-04-15T01:00:36.566Z,2.38
2023-04-15T01:03:04.450Z,2.28
2023-04-15T01:05:33.653Z,2.58
2023-04-15T01:08:01.861Z,2.38
2023-04-15T01:10:30.818Z,2.65
2023-04-15T01:12:58.526Z,2.90
2023-04-15T01:15:27.510Z,2.75
2023-04-15T01:17:55.743Z,2.40
2023-04-15T01:20:23.458Z,2.80
2023-04-15T01:22:51.499Z,2.53
2023-04-15T01:25:22.523Z,2.40
2023-04-15T01:27:50.254Z,3.33
2023-04-15T01:30:18.439Z,3.40
2023-04-15T01:32:46.630Z,3.30
2023-04-15T01:35:14.374Z,2.80
2023-04-15T01:37:42.154Z,2.88
2023-04-15T01:40:10.322Z,2.58
2023-04-15T01:42:38.410Z,2.70
2023-04-15T01:45:07.165Z,2.80
2023-04-15T01:47:34.844Z,2.65
2023-04-15T01:50:03.201Z,2.58
2023-04-15T01:52:30.918Z,2.28
2023-04-15T01:54:58.664Z,2.50
2023-04-15T01:57:26.425Z,2.03
2023-04-15T01:59:54.210Z,2.17
2023-04-15T02:02:22.828Z,2.33
2023-04-15T02:04:50.672Z,2.20
2023-04-15T02:07:18.314Z,2.33
2023-04-15T02:09:46.177Z,2.10
2023-04-15T02:12:14.468Z,2.60
2023-04-15T02:14:42.227Z,2.60
2023-04-15T02:17:09.938Z,2.40
2023-04-15T02:19:37.749Z,2.10
2023-04-15T02:22:07.310Z,2.55
2023-04-15T02:24:35.535Z,2.45
2023-04-15T02:27:04.222Z,2.22
2023-04-15T02:29:33.006Z,2.00
2023-04-15T02:32:02.096Z,2.40
2023-04-15T02:34:30.405Z,2.25
2023-04-15T02:36:58.993Z,2.60
2023-04-15T02:39:27.374Z,2.40
2023-04-15T02:41:55.408Z,2.05
2023-04-15T02:44:24.890Z,2.10
2023-04-15T02:46:56.636Z,2.40
2023-04-15T02:49:25.640Z,2.40
2023-04-15T02:51:53.351Z,2.65
2023-04-15T02:54:26.749Z,2.72
2023-04-15T02:56:56.152Z,2.20
2023-04-15T02:59:24.045Z,2.17
2023-04-15T03:01:51.793Z,1.98
2023-04-15T03:04:19.652Z,2.15
2023-04-15T03:06:47.492Z,2.00
2023-04-15T03:09:15.681Z,2.40
2023-04-15T03:11:44.183Z,2.17
2023-04-15T03:14:12.067Z,2.25
2023-04-15T03:16:43.505Z,2.40
2023-04-15T03:19:12.084Z,2.53
2023-04-15T03:21:42.333Z,2.67
2023-04-15T03:24:10.686Z,2.67
2023-04-15T03:26:38.879Z,2.80
2023-04-15T03:29:12.410Z,2.53
2023-04-15T03:31:41.730Z,2.60
2023-04-15T03:34:09.411Z,2.58
2023-04-15T03:36:37.620Z,2.35
2023-04-15T03:39:05.552Z,2.63
2023-04-15T03:41:33.477Z,2.50
2023-04-15T03:44:01.451Z,3.22
2023-04-15T03:46:29.183Z,2.90
2023-04-15T03:48:56.894Z,3.30
2023-04-15T03:51:24.610Z,2.72
2023-04-15T03:53:52.292Z,2.92
2023-04-15T03:56:19.981Z,2.58
2023-04-15T03:58:47.586Z,2.80
2023-04-15T04:01:15.416Z,2.58
2023-04-15T04:03:43.265Z,2.50
2023-04-15T04:06:12.460Z,2.20
2023-04-15T04:08:40.289Z,2.50
2023-04-15T04:11:08.062Z,2.20
2023-04-15T04:13:36.029Z,2.13
2023-04-15T04:16:07.150Z,2.22
2023-04-15T04:18:34.961Z,2.20
2023-04-15T04:21:02.843Z,2.38
2023-04-15T04:23:30.606Z,1.92
2023-04-15T04:25:58.266Z,2.10
2023-04-15T04:28:25.991Z,2.20
2023-04-15T04:30:53.762Z,2.42
2023-04-15T04:33:21.527Z,3.67
2023-04-15T04:35:49.229Z,2.80
2023-04-15T04:38:16.991Z,2.72
2023-04-15T04:40:44.788Z,2.38
2023-04-15T04:43:13.312Z,2.78
2023-04-15T04:45:41.167Z,2.80
2023-04-15T04:48:10.462Z,3.05
2023-04-15T04:50:38.226Z,2.88
2023-04-15T04:53:05.995Z,3.63
2023-04-15T04:55:36.836Z,3.10
2023-04-15T04:58:04.561Z,1.80
2023-04-15T05:00:32.522Z,2.60
2023-04-15T05:03:00.806Z,2.90
2023-04-15T05:05:28.890Z,2.42
2023-04-15T05:07:56.543Z,2.75
2023-04-15T05:10:24.281Z,2.78
2023-04-15T05:12:52.577Z,2.60
2023-04-15T05:15:20.381Z,2.55
2023-04-15T05:17:48.182Z,2.20
2023-04-15T05:20:16.002Z,2.47
2023-04-15T05:22:43.754Z,2.40
2023-04-15T05:25:12.434Z,2.55
2023-04-15T05:27:40.543Z,2.45
2023-04-15T05:30:08.967Z,2.22
2023-04-15T05:32:36.820Z,2.50
2023-04-15T05:35:05.022Z,2.22
2023-04-15T05:37:34.629Z,2.47
2023-04-15T05:40:02.609Z,2.60
2023-04-15T05:42:30.439Z,2.53
2023-04-15T05:44:58.282Z,2.65
2023-04-15T05:47:26.392Z,2.72
2023-04-15T05:49:54.307Z,2.72
2023-04-15T05:52:22.054Z,2.80
2023-04-15T05:54:49.761Z,3.05
2023-04-15T05:57:17.597Z,2.92
2023-04-15T05:59:45.338Z,3.15
2023-04-15T06:02:15.451Z,2.80
2023-04-15T06:04:43.128Z,2.65
2023-04-15T06:07:12.042Z,3.22
2023-04-15T06:09:39.724Z,2.92
2023-04-15T06:12:12.093Z,2.72
2023-04-15T06:14:40.575Z,3.13
2023-04-15T06:17:08.543Z,3.17
2023-04-15T06:19:36.794Z,3.28
2023-04-15T06:22:06.826Z,3.00
2023-04-15T06:24:36.983Z,3.20
2023-04-15T06:27:04.846Z,3.10
2023-04-15T06:29:32.558Z,3.33
2023-04-15T06:32:00.606Z,3.03
2023-04-15T06:34:28.335Z,3.35
2023-04-15T06:36:56.039Z,3.15
2023-04-15T06:39:23.722Z,3.35
2023-04-15T06:41:51.416Z,2.92
2023-04-15T06:44:22.448Z,2.97
2023-04-15T06:46:50.467Z,2.88
2023-04-15T06:49:18.206Z,2.97
2023-04-15T06:51:46.211Z,2.60
2023-04-15T06:54:16.203Z,3.00
2023-04-15T06:56:43.832Z,2.60
2023-04-15T06:59:11.553Z,2.45
2023-04-15T07:01:39.215Z,2.67
2023-04-15T07:04:07.607Z,2.72
2023-04-15T07:06:35.667Z,2.33
2023-04-15T07:09:05.537Z,3.03
2023-04-15T07:11:33.520Z,2.30
2023-04-15T07:14:01.412Z,2.15
2023-04-15T07:16:30.464Z,2.38
2023-04-15T07:18:58.277Z,2.22
2023-04-15T07:21:27.637Z,2.70
2023-04-15T07:23:55.525Z,2.60
2023-04-15T07:26:23.579Z,2.17
2023-04-15T07:28:52.146Z,2.15
2023-04-15T07:31:20.005Z,2.20
2023-04-15T07:33:47.718Z,2.10
2023-04-15T07:36:15.440Z,1.83
2023-04-15T07:38:43.151Z,2.25
2023-04-15T07:41:12.261Z,2.15
2023-04-15T07:43:42.558Z,1.90
2023-04-15T07:46:10.417Z,2.13
2023-04-15T07:48:39.265Z,1.90
2023-04-15T07:51:07.817Z,1.90
2023-04-15T07:53:35.628Z,1.98
2023-04-15T07:56:03.467Z,2.08
2023-04-15T07:58:33.561Z,2.55
2023-04-15T08:01:01.315Z,2.80
2023-04-15T08:03:29.171Z,2.35
2023-04-15T08:05:57.414Z,2.40
2023-04-15T08:08:25.803Z,2.00
2023-04-15T08:10:53.604Z,2.17
2023-04-15T08:13:21.778Z,2.40
2023-04-15T08:16:28.442Z,2.40
2023-04-15T08:18:57.108Z,2.63
2023-04-15T08:21:25.469Z,2.63
2023-04-15T08:23:54.549Z,2.30
2023-04-15T08:26:22.680Z,2.30
2023-04-15T08:28:51.274Z,2.30
2023-04-15T08:31:20.178Z,1.83
2023-04-15T08:33:48.375Z,2.03
2023-04-15T08:36:16.265Z,2.10
2023-04-15T08:38:45.604Z,2.13
2023-04-15T08:41:25.773Z,2.30
2023-04-15T08:44:06.620Z,2.03
2023-04-15T08:46:37.779Z,2.10
2023-04-15T08:49:09.484Z,2.10
2023-04-15T08:51:38.040Z,2.33
2023-04-15T08:54:06.498Z,2.75
2023-04-15T08:56:35.012Z,3.20
2023-04-15T08:59:03.958Z,3.80
2023-04-15T09:01:33.227Z,3.55
2023-04-15T09:04:04.280Z,3.53
2023-04-15T09:06:31.954Z,3.70
2023-04-15T09:08:59.946Z,3.80
2023-04-15T09:11:31.394Z,3.65
2023-04-15T09:13:59.413Z,4.18
2023-04-15T09:16:27.566Z,3.33
2023-04-15T09:18:55.662Z,3.15
2023-04-15T09:21:24.732Z,3.20
2023-04-15T09:24:01.853Z,3.20
2023-04-15T09:26:40.453Z,3.33
2023-04-15T09:29:14.780Z,3.40
2023-04-15T09:31:43.441Z,3.63
2023-04-15T09:34:11.674Z,3.83
2023-04-15T09:36:54.897Z,3.60
2023-04-15T09:39:22.851Z,4.18
2023-04-15T09:42:07.474Z,3.63
2023-04-15T09:44:37.958Z,4.13
2023-04-15T09:47:06.485Z,4.20
2023-04-15T09:49:34.274Z,3.92
2023-04-15T09:52:05.986Z,4.28
2023-04-15T09:54:39.145Z,4.40
2023-04-15T09:57:10.214Z,4.25
2023-04-15T09:59:38.594Z,4.38
2023-04-15T10:02:07.493Z,4.40
2023-04-15T10:04:39.685Z,4.25
2023-04-15T10:07:09.835Z,4.22
2023-04-15T10:09:39.551Z,4.13
2023-04-15T10:12:07.549Z,3.80
2023-04-15T10:14:38.457Z,4.43
2023-04-15T10:17:07.787Z,4.13
2023-04-15T10:19:38.451Z,4.47
2023-04-15T10:22:08.303Z,4.00
2023-04-15T10:24:37.311Z,4.40
2023-04-15T10:27:05.772Z,4.78
2023-04-15T10:29:34.249Z,4.07
2023-04-15T10:32:03.745Z,4.00
2023-04-15T10:34:32.846Z,4.20
2023-04-15T10:37:04.523Z,4.00
2023-04-15T10:39:35.124Z,3.55
2023-04-15T10:42:10.844Z,3.92
2023-04-15T10:44:49.673Z,3.30
2023-04-15T10:47:20.198Z,3.45
2023-04-15T10:50:00.444Z,3.60
2023-04-15T10:52:29.644Z,2.92
2023-04-15T10:55:18.369Z,3.20
2023-04-15T10:57:46.211Z,2.60
2023-04-15T11:00:16.418Z,2.92
2023-04-15T11:03:19.175Z,2.97
2023-04-15T11:05:52.469Z,2.58
2023-04-15T11:08:21.356Z,2.47
2023-04-15T11:10:48.970Z,3.28
2023-04-15T11:13:25.119Z,2.88
2023-04-15T11:15:58.318Z,3.13
2023-04-15T11:18:31.326Z,3.20
2023-04-15T11:21:03.490Z,3.40
2023-04-15T11:23:47.007Z,3.47
2023-04-15T11:26:15.768Z,3.15
2023-04-15T11:28:46.674Z,2.60
2023-04-15T11:31:18.206Z,2.40
2023-04-15T11:33:59.037Z,2.40
2023-04-15T11:36:29.269Z,2.80
2023-04-15T11:38:59.507Z,2.40
2023-04-15T11:41:27.501Z,2.50
2023-04-15T11:43:55.318Z,2.78
2023-04-15T11:46:33.419Z,3.22
2023-04-15T11:49:01.644Z,2.40
2023-04-15T11:51:34.507Z,2.78
2023-04-15T11:54:03.194Z,2.67
2023-04-15T11:56:32.039Z,2.60
2023-04-15T11:59:00.316Z,2.30
2023-04-15T12:01:36.351Z,2.13
2023-04-15T12:04:22.579Z,2.75
2023-04-15T12:06:53.447Z,2.67
2023-04-15T12:09:21.712Z,3.03
2023-04-15T12:11:51.691Z,3.40
2023-04-15T12:14:41.109Z,2.25
2023-04-15T12:17:11.428Z,2.60
2023-04-15T12:19:42.271Z,2.95
2023-04-15T12:22:17.585Z,2.50
2023-04-15T12:24:49.449Z,2.13
2023-04-15T12:27:17.697Z,2.58
2023-04-15T12:29:45.576Z,1.60
2023-04-15T12:32:20.849Z,1.50
2023-04-15T12:34:55.164Z,1.27
2023-04-15T12:37:24.099Z,1.40
2023-04-15T12:39:52.288Z,2.00
2023-04-15T12:42:20.944Z,1.83
2023-04-15T12:44:48.587Z,1.55
2023-04-15T12:47:16.358Z,1.60
2023-04-15T12:49:47.084Z,1.58
2023-04-15T12:52:17.031Z,1.95
2023-04-15T12:54:44.786Z,1.80
2023-04-15T12:57:12.453Z,2.10
2023-04-15T12:59:40.514Z,2.53
2023-04-15T13:02:08.929Z,2.10
2023-04-15T13:04:38.687Z,2.17
2023-04-15T13:07:06.575Z,1.60
2023-04-15T13:09:34.358Z,2.10
2023-04-15T13:12:05.342Z,2.70
2023-04-15T13:14:33.074Z,2.42
2023-04-15T13:17:00.816Z,2.55
2023-04-15T13:19:28.626Z,2.20
2023-04-15T13:21:56.321Z,2.28
2023-04-15T13:24:24.087Z,3.45
2023-04-15T13:26:52.087Z,5.60
2023-04-15T13:29:20.147Z,3.58
2023-04-15T13:31:47.957Z,2.92
2023-04-15T13:34:15.707Z,2.60
2023-04-15T13:36:43.379Z,2.42
2023-04-15T13:39:11.295Z,1.83
2023-04-15T13:41:39.067Z,1.73
2023-04-15T13:44:09.094Z,1.90
2023-04-15T13:46:37.789Z,1.83
2023-04-15T13:49:06.079Z,1.58
2023-04-15T13:51:36.030Z,2.03
2023-04-15T13:54:04.235Z,2.47
2023-04-15T13:56:37.888Z,2.30
2023-04-15T13:59:06.645Z,2.80
2023-04-15T14:01:35.364Z,1.67
2023-04-15T14:04:03.306Z,2.05
2023-04-15T14:06:33.345Z,1.80
2023-04-15T14:09:01.192Z,2.28
2023-04-15T14:11:29.960Z,2.20
2023-04-15T14:13:57.674Z,2.00
2023-04-15T14:16:27.520Z,1.85
2023-04-15T14:18:58.008Z,1.50
2023-04-15T14:21:27.841Z,15.50
2023-04-15T14:23:55.776Z,5.03
2023-04-15T14:26:23.452Z,3.00
2023-04-15T14:28:52.686Z,4.45
2023-04-15T14:31:20.721Z,2.45
2023-04-15T14:33:48.502Z,1.80
2023-04-15T14:36:16.279Z,9.00
2023-04-15T14:38:45.776Z,4.78
2023-04-15T14:41:14.729Z,5.47
2023-04-15T14:43:42.407Z,13.05
2023-04-15T14:46:11.545Z,18.90
2023-04-15T14:48:39.345Z,38.05
2023-04-15T14:51:07.329Z,33.35
2023-04-15T14:53:35.062Z,12.63
2023-04-15T14:56:02.888Z,22.30
2023-04-15T14:58:30.877Z,12.75
2023-04-15T15:00:59.067Z,14.23
2023-04-15T15:03:26.982Z,8.85
2023-04-15T15:05:55.089Z,11.40
2023-04-15T15:08:23.134Z,6.10
2023-04-15T15:10:53.042Z,8.25
2023-04-15T15:13:25.624Z,2.95
2023-04-15T15:15:55.512Z,1.40
2023-04-15T15:18:25.485Z,0.93
2023-04-15T15:20:53.265Z,1.65
2023-04-15T15:23:20.973Z,1.13
2023-04-15T15:25:48.841Z,1.00
2023-04-15T15:28:17.444Z,0.82
2023-04-15T15:30:45.552Z,0.98
2023-04-15T15:33:13.264Z,1.10
2023-04-15T15:35:41.129Z,1.10
2023-04-15T15:38:11.171Z,1.20
2023-04-15T15:40:41.167Z,1.40
2023-04-15T15:43:09.235Z,0.90
2023-04-15T15:45:36.971Z,1.48
2023-04-15T15:48:05.803Z,0.90
2023-04-15T15:50:34.781Z,1.23
2023-04-15T15:53:02.577Z,1.23
2023-04-15T15:55:30.529Z,1.25
2023-04-15T15:57:58.287Z,1.10
2023-04-15T16:00:26.341Z,1.10
2023-04-15T16:03:06.162Z,1.25
2023-04-15T16:05:40.511Z,1.30
2023-04-15T16:08:08.324Z,1.33
2023-04-15T16:10:36.088Z,1.10
2023-04-15T16:13:03.865Z,1.45
2023-04-15T16:15:32.518Z,1.20
2023-04-15T16:18:00.659Z,1.30
2023-04-15T16:20:28.910Z,1.17
2023-04-15T16:22:59.398Z,1.08
2023-04-15T16:25:27.210Z,1.40
2023-04-15T16:28:05.536Z,2.05
2023-04-15T16:30:44.173Z,1.77
2023-04-15T16:33:11.879Z,1.38
2023-04-15T16:35:39.583Z,2.00
2023-04-15T16:38:07.335Z,1.60
2023-04-15T16:40:36.660Z,1.65
2023-04-15T16:45:35.900Z,1.65
2023-04-15T16:48:03.828Z,1.50
2023-04-15T16:50:31.689Z,1.30
2023-04-15T16:52:59.459Z,1.30
2023-04-15T16:55:27.492Z,1.17
2023-04-15T16:58:02.772Z,1.40
2023-04-15T17:00:32.823Z,1.50
2023-04-15T17:03:01.263Z,1.40
2023-04-15T17:05:31.824Z,1.58
2023-04-15T17:07:59.829Z,1.50
2023-04-15T17:10:28.202Z,1.67
2023-04-15T17:13:02.141Z,1.70
2023-04-15T17:15:31.436Z,1.88
2023-04-15T17:17:59.285Z,1.73
2023-04-15T17:20:27.282Z,2.05
2023-04-15T17:22:54.980Z,2.05
2023-04-15T17:25:23.544Z,1.80
2023-04-15T17:27:51.204Z,1.90
2023-04-15T17:30:19.935Z,2.00
2023-04-15T17:32:47.923Z,1.90
2023-04-15T17:35:16.308Z,2.00
2023-04-15T17:37:44.028Z,2.15
2023-04-15T17:40:12.400Z,1.98
2023-04-15T17:42:40.608Z,2.00
2023-04-15T17:45:09.206Z,1.83
2023-04-15T17:47:36.949Z,1.50
2023-04-15T17:50:05.269Z,1.60
2023-04-15T17:52:35.437Z,1.60
2023-04-15T17:55:03.190Z,1.50
2023-04-15T17:57:31.161Z,1.60
2023-04-15T17:59:58.982Z,1.40
2023-04-15T18:02:28.030Z,1.48
2023-04-15T18:04:58.044Z,1.85
2023-04-15T18:07:25.823Z,2.08
2023-04-15T18:09:55.987Z,1.80
2023-04-15T18:12:23.875Z,2.00
2023-04-15T18:14:51.617Z,1.80
2023-04-15T18:17:20.230Z,2.00
2023-04-15T18:19:48.248Z,2.20
2023-04-15T18:22:16.114Z,2.50
2023-04-15T18:24:47.246Z,2.25
2023-04-15T18:29:49.100Z,2.17
2023-04-15T18:32:20.091Z,9.38
2023-04-15T18:34:48.574Z,10.25
2023-04-15T18:37:16.841Z,3.45
2023-04-15T18:39:46.008Z,2.85
2023-04-15T18:42:17.064Z,2.42
2023-04-15T18:44:44.927Z,2.00
2023-04-15T18:47:13.784Z,2.20
2023-04-15T18:49:44.595Z,1.75
2023-04-15T18:52:13.150Z,1.88
2023-04-15T18:54:40.933Z,1.60
2023-04-15T18:57:09.063Z,1.98
2023-04-15T18:59:37.059Z,1.95
2023-04-15T19:02:11.863Z,1.80
2023-04-15T19:04:40.180Z,1.77
2023-04-15T19:07:18.728Z,2.00
2023-04-15T19:09:48.203Z,1.98
2023-04-15T19:12:19.013Z,2.22
2023-04-15T19:14:48.272Z,2.20
2023-04-15T19:17:17.565Z,2.17
2023-04-15T19:19:45.953Z,2.45
2023-04-15T19:22:15.629Z,2.40
2023-04-15T19:24:44.062Z,2.45
2023-04-15T19:27:11.859Z,2.42
2023-04-15T19:29:39.643Z,2.17
2023-04-15T19:32:08.017Z,2.15
2023-04-15T19:34:35.790Z,2.42
2023-04-15T19:37:03.587Z,2.10
2023-04-15T19:39:31.376Z,2.17
2023-04-15T19:41:59.507Z,2.45
2023-04-15T19:44:27.208Z,2.15
2023-04-15T19:46:55.363Z,2.30
2023-04-15T19:49:23.232Z,2.20
2023-04-15T19:51:51.294Z,2.60
2023-04-15T19:54:19.032Z,2.33
2023-04-15T19:56:46.685Z,2.28
2023-04-15T19:59:14.995Z,2.58
2023-04-15T20:01:42.959Z,2.70
2023-04-15T20:04:11.131Z,2.30
2023-04-15T20:06:39.372Z,2.97
2023-04-15T20:09:09.001Z,2.75
2023-04-15T20:12:45.888Z,2.83
2023-04-15T20:14:26.668Z,3.05
2023-04-15T20:16:54.429Z,3.22
2023-04-15T20:19:22.891Z,3.20
2023-04-15T20:21:52.540Z,3.45
2023-04-15T20:24:21.772Z,3.30
2023-04-15T20:26:49.422Z,3.25
2023-04-15T20:29:17.262Z,3.45
2023-04-15T20:31:45.132Z,3.63
2023-04-15T20:34:12.907Z,3.45
2023-04-15T20:36:42.404Z,3.85
2023-04-15T20:39:10.206Z,4.07
2023-04-15T20:41:37.921Z,4.00
2023-04-15T20:44:05.761Z,3.75
2023-04-15T20:46:33.427Z,3.47
2023-04-15T20:49:01.191Z,3.63
2023-04-15T20:51:49.448Z,3.53
2023-04-15T20:54:19.526Z,4.15
2023-04-15T20:56:47.198Z,4.13
2023-04-15T20:59:15.027Z,4.47
2023-04-15T21:01:42.860Z,4.03
2023-04-15T21:04:10.708Z,4.35
2023-04-15T21:06:38.396Z,3.70
2023-04-15T21:09:06.351Z,4.40
2023-04-15T21:11:53.246Z,4.40
2023-04-15T21:14:22.299Z,4.10
2023-04-15T21:16:51.853Z,4.40
2023-04-15T21:19:19.646Z,4.13
2023-04-15T21:21:47.331Z,4.28
2023-04-15T21:24:15.009Z,4.22
2023-04-15T21:26:42.735Z,4.30
2023-04-15T21:29:11.956Z,4.22
2023-04-15T21:31:40.804Z,4.18
2023-04-15T21:34:09.227Z,4.35
2023-04-15T21:36:38.301Z,4.07
2023-04-15T21:39:06.391Z,4.13
2023-04-15T21:41:34.220Z,4.05
2023-04-15T21:44:02.196Z,4.10
2023-04-15T21:46:32.841Z,4.13
2023-04-15T21:49:03.490Z,4.18
2023-04-15T21:51:31.599Z,4.20
2023-04-15T21:53:59.688Z,4.07
2023-04-15T21:56:28.523Z,4.22
2023-04-15T21:58:57.955Z,4.32
2023-04-15T22:01:26.783Z,4.13
2023-04-15T22:03:54.896Z,4.20
2023-04-15T22:06:23.006Z,4.10
2023-04-15T22:08:56.869Z,4.10
2023-04-15T22:11:30.399Z,4.10
2023-04-15T22:13:59.004Z,4.30
2023-04-15T22:16:27.715Z,4.43
2023-04-15T22:18:55.832Z,4.03
2023-04-15T22:21:23.869Z,4.30
2023-04-15T22:23:51.951Z,4.38
2023-04-15T22:26:20.539Z,4.05
2023-04-15T22:28:48.263Z,4.10
2023-04-15T22:31:15.999Z,4.50
2023-04-15T22:33:43.640Z,4.43
2023-04-15T22:36:11.538Z,3.95
2023-04-15T22:38:39.251Z,4.18
2023-04-15T22:41:07.070Z,4.35
2023-04-15T22:43:34.805Z,4.68
2023-04-15T22:46:02.794Z,4.15
2023-04-15T22:48:30.693Z,4.10
2023-04-15T22:50:58.422Z,4.40
2023-04-15T22:53:26.411Z,4.43
2023-04-15T22:55:54.212Z,4.38
2023-04-15T22:58:22.065Z,4.35
2023-04-15T23:00:50.195Z,4.10
2023-04-15T23:03:18.206Z,4.38
2023-04-15T23:05:46.714Z,4.20
2023-04-15T23:08:14.529Z,4.05
2023-04-15T23:10:44.622Z,4.35
2023-04-15T23:13:12.364Z,4.18
2023-04-15T23:15:40.588Z,4.30
2023-04-15T23:18:08.357Z,4.28
2023-04-15T23:20:36.758Z,4.30
2023-04-15T23:23:04.518Z,4.07
2023-04-15T23:25:32.295Z,3.80
2023-04-15T23:28:00.233Z,3.67
2023-04-15T23:30:27.990Z,3.88
2023-04-15T23:32:55.865Z,3.70
2023-04-15T23:35:24.490Z,3.65
2023-04-15T23:37:52.223Z,3.90
2023-04-15T23:40:19.983Z,4.00
2023-04-15T23:42:47.756Z,3.92
2023-04-15T23:45:15.519Z,3.30
2023-04-15T23:47:43.225Z,4.18
2023-04-15T23:50:11.283Z,3.60
2023-04-15T23:52:39.245Z,4.07
2023-04-15T23:55:07.858Z,4.03
2023-04-15T23:57:35.528Z,3.75
